createdAt,value
2024-01-20T00:00:58.153Z,82.36
2024-01-20T00:03:46.149Z,82.29
2024-01-20T00:06:14.616Z,82.50
2024-01-20T00:08:42.878Z,82.57
2024-01-20T00:11:11.282Z,82.71
2024-01-20T00:13:39.659Z,82.55
2024-01-20T00:16:08.013Z,82.67
2024-01-20T00:18:36.030Z,82.53
2024-01-20T00:21:04.671Z,82.70
2024-01-20T00:23:32.740Z,82.68
2024-01-20T00:26:00.993Z,82.61
2024-01-20T00:28:29.477Z,82.65
2024-01-20T00:30:57.660Z,82.70
2024-01-20T00:33:27.283Z,82.72
2024-01-20T00:35:55.788Z,82.72
2024-01-20T00:38:25.695Z,82.61
2024-01-20T00:40:53.679Z,82.72
2024-01-20T00:43:21.659Z,82.70
2024-01-20T00:45:49.666Z,82.87
2024-01-20T00:48:17.679Z,82.97
2024-01-20T00:50:45.636Z,83.12
2024-01-20T00:53:13.988Z,83.14
2024-01-20T00:55:42.036Z,83.28
2024-01-20T00:58:10.916Z,83.39
2024-01-20T01:00:39.253Z,83.54
2024-01-20T01:03:09.437Z,83.57
2024-01-20T01:05:37.716Z,83.85
2024-01-20T01:08:05.823Z,83.76
2024-01-20T01:10:33.784Z,84.16
2024-01-20T01:13:01.964Z,84.34
2024-01-20T01:15:31.879Z,84.32
2024-01-20T01:17:59.741Z,84.53
2024-01-20T01:20:27.819Z,84.27
2024-01-20T01:22:55.796Z,84.37
2024-01-20T01:25:24.051Z,84.57
2024-01-20T01:27:52.029Z,84.60
2024-01-20T01:30:20.692Z,84.58
2024-01-20T01:32:48.869Z,84.66
2024-01-20T01:35:16.908Z,84.60
2024-01-20T01:37:45.152Z,84.61
2024-01-20T01:40:14.379Z,84.48
2024-01-20T01:42:42.412Z,84.54
2024-01-20T01:45:11.389Z,84.43
2024-01-20T01:47:39.847Z,84.82
2024-01-20T01:50:08.764Z,84.93
2024-01-20T01:52:37.205Z,84.88
2024-01-20T01:55:05.959Z,84.98
2024-01-20T01:57:36.225Z,85.08
2024-01-20T02:00:05.678Z,85.13
2024-01-20T02:02:33.713Z,85.00
2024-01-20T02:05:02.195Z,85.02
2024-01-20T02:07:31.093Z,85.36
2024-01-20T02:09:59.156Z,85.15
2024-01-20T02:12:27.928Z,85.20
2024-01-20T02:14:56.523Z,84.87
2024-01-20T02:17:24.673Z,85.00
2024-01-20T02:19:52.489Z,84.83
2024-01-20T02:22:20.487Z,84.80
2024-01-20T02:24:51.042Z,84.84
2024-01-20T02:27:20.510Z,84.66
2024-01-20T02:29:48.879Z,84.62
2024-01-20T02:32:17.040Z,84.65
2024-01-20T02:34:45.239Z,84.33
2024-01-20T02:37:13.130Z,84.38
2024-01-20T02:39:41.253Z,84.27
2024-01-20T02:42:10.771Z,84.26
2024-01-20T02:44:39.946Z,84.29
2024-01-20T02:47:07.805Z,84.32
2024-01-20T02:49:36.190Z,84.27
2024-01-20T02:52:05.267Z,84.13
2024-01-20T02:54:33.267Z,83.85
2024-01-20T02:57:01.521Z,83.65
2024-01-20T02:59:29.559Z,83.69
2024-01-20T03:01:57.527Z,83.67
2024-01-20T03:04:25.542Z,83.71
2024-01-20T03:06:53.334Z,83.86
2024-01-20T03:09:21.369Z,83.58
2024-01-20T03:11:49.538Z,83.44
2024-01-20T03:14:17.384Z,83.17
2024-01-20T03:16:45.653Z,83.33
2024-01-20T03:19:13.535Z,83.16
2024-01-20T03:21:41.511Z,83.14
2024-01-20T03:24:11.366Z,83.23
2024-01-20T03:26:39.329Z,83.13
2024-01-20T03:29:07.441Z,83.21
2024-01-20T03:31:35.249Z,83.23
2024-01-20T03:34:03.232Z,82.92
2024-01-20T03:36:31.205Z,83.06
2024-01-20T03:38:59.339Z,82.89
2024-01-20T03:41:27.319Z,82.91
2024-01-20T03:43:56.047Z,82.89
2024-01-20T03:46:24.853Z,82.99
2024-01-20T03:48:53.284Z,82.76
2024-01-20T03:51:27.815Z,82.93
2024-01-20T03:53:56.323Z,82.65
2024-01-20T03:56:24.239Z,82.65
2024-01-20T03:58:52.184Z,82.31
2024-01-20T04:01:19.989Z,82.80
2024-01-20T04:03:47.890Z,82.43
2024-01-20T04:06:15.985Z,82.65
2024-01-20T04:08:44.050Z,82.45
2024-01-20T04:11:11.858Z,82.65
2024-01-20T04:13:39.630Z,82.62
2024-01-20T04:16:07.637Z,82.94
2024-01-20T04:18:35.774Z,82.63
2024-01-20T04:21:04.154Z,82.95
2024-01-20T04:23:31.999Z,83.53
2024-01-20T04:25:59.805Z,83.92
2024-01-20T04:28:27.813Z,83.85
2024-01-20T04:30:55.722Z,83.53
2024-01-20T04:33:23.615Z,83.34
2024-01-20T04:35:51.759Z,83.48
2024-01-20T04:38:19.680Z,83.33
2024-01-20T04:40:47.659Z,83.30
2024-01-20T04:43:15.525Z,85.21
2024-01-20T04:45:43.781Z,85.97
2024-01-20T04:48:12.476Z,85.62
2024-01-20T04:50:41.545Z,86.56
2024-01-20T04:53:09.745Z,87.18
2024-01-20T04:55:37.765Z,87.87
2024-01-20T04:58:05.971Z,87.84
2024-01-20T05:00:36.905Z,87.43
2024-01-20T05:03:05.147Z,87.43
2024-01-20T05:05:34.282Z,87.16
2024-01-20T05:08:02.215Z,87.27
2024-01-20T05:10:30.149Z,87.16
2024-01-20T05:12:58.158Z,87.10
2024-01-20T05:15:26.772Z,87.33
2024-01-20T05:17:54.823Z,87.25
2024-01-20T05:20:23.019Z,87.56
2024-01-20T05:22:51.336Z,87.50
2024-01-20T05:25:19.273Z,88.97
2024-01-20T05:27:47.114Z,90.06
2024-01-20T05:30:15.512Z,90.06
2024-01-20T05:32:44.217Z,90.42
2024-01-20T05:35:13.494Z,90.30
2024-01-20T05:37:41.582Z,89.87
2024-01-20T05:40:10.374Z,89.54
2024-01-20T05:42:38.382Z,89.14
2024-01-20T05:45:10.878Z,89.06
2024-01-20T05:47:38.952Z,89.44
2024-01-20T05:50:07.965Z,89.58
2024-01-20T05:52:36.039Z,89.49
2024-01-20T05:55:04.542Z,89.85
2024-01-20T05:57:32.640Z,89.65
2024-01-20T06:00:00.686Z,89.91
2024-01-20T06:02:29.170Z,90.37
2024-01-20T06:04:57.144Z,90.86
2024-01-20T06:07:24.950Z,91.14
2024-01-20T06:09:52.758Z,91.35
2024-01-20T06:12:20.654Z,91.82
2024-01-20T06:14:48.474Z,91.25
2024-01-20T06:17:16.498Z,91.30
2024-01-20T06:19:44.520Z,91.19
2024-01-20T06:22:12.668Z,90.90
2024-01-20T06:24:40.508Z,90.79
2024-01-20T06:27:08.717Z,90.78
2024-01-20T06:29:43.439Z,90.71
2024-01-20T06:32:11.784Z,90.46
2024-01-20T06:34:40.646Z,90.41
2024-01-20T06:37:09.042Z,90.53
2024-01-20T06:39:40.477Z,90.38
2024-01-20T06:42:11.602Z,90.32
2024-01-20T06:44:39.777Z,90.36
2024-01-20T06:47:10.682Z,90.26
2024-01-20T06:49:40.903Z,90.08
2024-01-20T06:52:09.029Z,90.80
2024-01-20T06:54:37.035Z,91.22
2024-01-20T06:57:05.614Z,90.48
2024-01-20T06:59:33.877Z,90.26
2024-01-20T07:02:02.154Z,90.30
2024-01-20T07:04:30.952Z,89.74
2024-01-20T07:06:59.011Z,89.57
2024-01-20T07:09:27.073Z,89.09
2024-01-20T07:11:57.602Z,89.26
2024-01-20T07:14:28.719Z,89.07
2024-01-20T07:16:56.783Z,89.06
2024-01-20T07:19:24.643Z,88.56
2024-01-20T07:21:52.496Z,88.52
2024-01-20T07:24:20.381Z,88.52
2024-01-20T07:26:48.681Z,88.36
2024-01-20T07:29:17.025Z,88.04
2024-01-20T07:31:44.899Z,88.16
2024-01-20T07:34:12.827Z,88.15
2024-01-20T07:36:41.103Z,88.00
2024-01-20T07:39:09.359Z,87.89
2024-01-20T07:41:37.194Z,87.74
2024-01-20T07:44:05.197Z,87.56
2024-01-20T07:46:33.013Z,87.23
2024-01-20T07:49:01.222Z,87.13
2024-01-20T07:51:29.280Z,86.97
2024-01-20T07:53:57.214Z,87.07
2024-01-20T07:56:25.248Z,86.88
2024-01-20T07:58:53.099Z,86.27
2024-01-20T08:01:21.032Z,86.50
2024-01-20T08:03:48.879Z,86.14
2024-01-20T08:06:17.307Z,85.95
2024-01-20T08:08:45.938Z,85.71
2024-01-20T08:11:13.841Z,85.57
2024-01-20T08:13:41.643Z,85.26
2024-01-20T08:16:09.932Z,85.34
2024-01-20T08:18:37.963Z,85.51
2024-01-20T08:21:07.901Z,85.48
2024-01-20T08:23:35.908Z,84.97
2024-01-20T08:26:06.688Z,84.80
2024-01-20T08:28:34.640Z,85.71
2024-01-20T08:31:02.792Z,85.20
2024-01-20T08:33:30.935Z,84.87
2024-01-20T08:35:58.935Z,84.88
2024-01-20T08:38:27.020Z,85.48
2024-01-20T08:40:55.649Z,85.10
2024-01-20T08:43:24.321Z,85.09
2024-01-20T08:45:52.353Z,84.99
2024-01-20T08:48:20.373Z,84.58
2024-01-20T08:50:48.345Z,84.58
2024-01-20T08:53:16.211Z,84.12
2024-01-20T08:55:44.150Z,84.60
2024-01-20T08:58:12.038Z,83.98
2024-01-20T09:00:40.540Z,83.83
2024-01-20T09:03:08.573Z,83.82
2024-01-20T09:05:38.536Z,83.66
2024-01-20T09:08:10.561Z,83.29
2024-01-20T09:10:39.059Z,82.93
2024-01-20T09:13:08.482Z,84.68
2024-01-20T09:15:36.768Z,84.68
2024-01-20T09:18:05.506Z,84.72
2024-01-20T09:20:33.736Z,84.33
2024-01-20T09:23:03.072Z,83.68
2024-01-20T09:25:31.021Z,83.27
2024-01-20T09:28:01.154Z,83.21
2024-01-20T09:30:29.162Z,83.02
2024-01-20T09:32:57.242Z,82.12
2024-01-20T09:35:25.624Z,82.78
2024-01-20T09:37:53.509Z,82.07
2024-01-20T09:40:21.380Z,81.82
2024-01-20T09:42:50.110Z,81.82
2024-01-20T09:45:18.375Z,81.77
2024-01-20T09:47:46.491Z,81.51
2024-01-20T09:50:14.980Z,81.71
2024-01-20T09:52:57.737Z,81.80
2024-01-20T09:55:27.573Z,81.54
2024-01-20T09:57:56.644Z,81.12
2024-01-20T10:00:25.501Z,81.26
2024-01-20T10:02:54.803Z,81.62
2024-01-20T10:05:25.947Z,81.36
2024-01-20T10:07:53.937Z,80.92
2024-01-20T10:10:23.257Z,80.73
2024-01-20T10:12:52.942Z,80.83
2024-01-20T10:15:34.361Z,80.73
2024-01-20T10:18:12.395Z,80.40
2024-01-20T10:20:41.075Z,80.02
2024-01-20T10:23:09.688Z,80.31
2024-01-20T10:25:38.677Z,80.03
2024-01-20T10:28:08.942Z,79.46
2024-01-20T10:30:39.294Z,79.79
2024-01-20T10:33:10.998Z,79.83
2024-01-20T10:35:40.258Z,79.30
2024-01-20T10:38:15.299Z,79.08
2024-01-20T10:40:46.738Z,79.06
2024-01-20T10:43:17.314Z,79.35
2024-01-20T10:45:52.901Z,79.13
2024-01-20T10:48:29.474Z,79.23
2024-01-20T10:51:01.666Z,79.06
2024-01-20T10:53:30.473Z,78.72
2024-01-20T10:55:59.829Z,79.22
2024-01-20T10:58:35.215Z,78.09
2024-01-20T11:01:05.160Z,78.41
2024-01-20T11:03:33.932Z,78.21
2024-01-20T11:06:02.149Z,78.37
2024-01-20T11:08:33.145Z,77.85
2024-01-20T11:11:01.619Z,77.79
2024-01-20T11:13:29.452Z,77.64
2024-01-20T11:15:59.202Z,78.00
2024-01-20T11:18:28.776Z,77.61
2024-01-20T11:20:59.945Z,77.81
2024-01-20T11:23:28.937Z,78.85
2024-01-20T11:25:58.437Z,77.92
2024-01-20T11:28:34.153Z,77.75
2024-01-20T11:31:03.822Z,77.34
2024-01-20T11:33:33.063Z,77.10
2024-01-20T11:36:01.787Z,77.01
2024-01-20T11:38:32.532Z,76.75
2024-01-20T11:41:01.956Z,76.42
2024-01-20T11:43:31.148Z,76.66
2024-01-20T11:45:59.389Z,76.55
2024-01-20T11:48:27.714Z,76.00
2024-01-20T11:50:55.819Z,76.44
2024-01-20T11:53:24.089Z,76.41
2024-01-20T11:56:01.005Z,76.78
2024-01-20T11:58:29.284Z,76.55
2024-01-20T12:00:59.427Z,76.38
2024-01-20T12:03:28.395Z,76.49
2024-01-20T12:05:57.362Z,76.52
2024-01-20T12:08:25.409Z,76.78
2024-01-20T12:10:53.252Z,76.49
2024-01-20T12:13:21.785Z,76.57
2024-01-20T12:15:51.105Z,76.39
2024-01-20T12:18:19.172Z,76.47
2024-01-20T12:20:48.237Z,76.76
2024-01-20T12:23:21.397Z,76.16
2024-01-20T12:25:54.448Z,76.18
2024-01-20T12:28:23.139Z,76.38
2024-01-20T12:30:51.547Z,76.61
2024-01-20T12:33:19.654Z,76.31
2024-01-20T12:35:47.770Z,76.72
2024-01-20T12:38:16.227Z,76.26
2024-01-20T12:40:44.131Z,76.16
2024-01-20T12:43:12.386Z,76.75
2024-01-20T12:45:40.304Z,77.00
2024-01-20T12:48:08.635Z,76.82
2024-01-20T12:50:36.636Z,76.85
2024-01-20T12:53:04.875Z,77.02
2024-01-20T12:55:32.809Z,76.68
2024-01-20T12:58:00.934Z,76.92
2024-01-20T13:00:28.975Z,77.01
2024-01-20T13:02:56.905Z,76.61
2024-01-20T13:05:25.031Z,76.45
2024-01-20T13:07:53.111Z,76.93
2024-01-20T13:10:21.278Z,76.47
2024-01-20T13:12:49.368Z,76.51
2024-01-20T13:15:17.814Z,76.91
2024-01-20T13:17:45.894Z,76.48
2024-01-20T13:20:14.059Z,76.52
2024-01-20T13:22:42.049Z,76.37
2024-01-20T13:25:10.483Z,76.70
2024-01-20T13:27:38.471Z,76.72
2024-01-20T13:30:07.886Z,76.73
2024-01-20T13:32:36.483Z,77.07
2024-01-20T13:35:05.766Z,76.74
2024-01-20T13:37:33.719Z,76.50
2024-01-20T13:40:01.886Z,76.59
2024-01-20T13:42:29.908Z,76.41
2024-01-20T13:44:57.764Z,76.92
2024-01-20T13:47:25.830Z,77.02
2024-01-20T13:49:53.869Z,76.82
2024-01-20T13:52:22.101Z,76.79
2024-01-20T13:54:50.012Z,77.23
2024-01-20T13:57:18.400Z,76.92
2024-01-20T13:59:46.357Z,76.75
2024-01-20T14:02:14.232Z,76.85
2024-01-20T14:04:42.310Z,77.85
2024-01-20T14:07:10.597Z,78.87
2024-01-20T14:09:39.216Z,79.24
2024-01-20T14:12:08.061Z,79.51
2024-01-20T14:14:37.473Z,79.46
2024-01-20T14:17:05.872Z,80.25
2024-01-20T14:19:33.825Z,84.73
2024-01-20T14:22:02.084Z,88.95
2024-01-20T14:24:29.932Z,86.46
2024-01-20T14:26:57.992Z,85.78
2024-01-20T14:29:25.984Z,86.44
2024-01-20T14:31:54.712Z,89.02
2024-01-20T14:34:23.471Z,91.35
2024-01-20T14:36:54.574Z,93.05
2024-01-20T14:39:24.136Z,94.53
2024-01-20T14:41:52.359Z,94.82
2024-01-20T14:44:20.454Z,94.70
2024-01-20T14:46:48.702Z,98.16
2024-01-20T14:49:16.692Z,99.90
2024-01-20T14:51:46.574Z,100.00
2024-01-20T14:54:14.847Z,100.00
2024-01-20T14:56:42.988Z,100.00
2024-01-20T14:59:11.306Z,100.00
2024-01-20T15:01:39.603Z,100.00
2024-01-20T15:04:08.458Z,100.00
2024-01-20T15:06:36.575Z,100.00
2024-01-20T15:09:06.152Z,100.00
2024-01-20T15:11:34.683Z,100.00
2024-01-20T15:14:03.248Z,100.00
2024-01-20T15:16:31.045Z,100.00
2024-01-20T15:18:59.002Z,100.00
2024-01-20T15:21:27.165Z,100.00
2024-01-20T15:23:55.305Z,100.00
2024-01-20T15:26:23.221Z,100.00
2024-01-20T15:28:51.096Z,100.00
2024-01-20T15:31:19.336Z,100.00
2024-01-20T15:33:47.938Z,100.00
2024-01-20T15:36:19.324Z,100.00
2024-01-20T15:38:47.161Z,100.00
2024-01-20T15:41:15.929Z,100.00
2024-01-20T15:43:44.781Z,100.00
2024-01-20T15:46:13.080Z,100.00
2024-01-20T15:48:41.118Z,100.00
2024-01-20T15:51:09.172Z,100.00
2024-01-20T15:53:37.341Z,100.00
2024-01-20T15:56:06.063Z,100.00
2024-01-20T15:58:33.889Z,100.00
2024-01-20T16:01:01.803Z,100.00
2024-01-20T16:03:30.010Z,100.00
2024-01-20T16:05:58.095Z,100.00
2024-01-20T16:08:26.495Z,100.00
2024-01-20T16:10:54.574Z,100.00
2024-01-20T16:13:22.537Z,100.00
2024-01-20T16:15:50.438Z,100.00
2024-01-20T16:18:18.763Z,100.00
2024-01-20T16:20:47.560Z,100.00
2024-01-20T16:23:17.987Z,100.00
2024-01-20T16:25:46.032Z,100.00
2024-01-20T16:28:14.026Z,100.00
2024-01-20T16:30:41.923Z,100.00
2024-01-20T16:33:10.025Z,100.00
2024-01-20T16:35:38.649Z,100.00
2024-01-20T16:38:06.747Z,100.00
2024-01-20T16:40:34.543Z,100.00
2024-01-20T16:43:02.321Z,100.00
2024-01-20T16:45:30.378Z,100.00
2024-01-20T16:47:58.669Z,100.00
2024-01-20T16:50:26.820Z,100.00
2024-01-20T16:52:54.766Z,100.00
2024-01-20T16:55:22.671Z,100.00
2024-01-20T16:57:51.198Z,100.00
2024-01-20T17:00:19.737Z,100.00
2024-01-20T17:02:47.767Z,100.00
2024-01-20T17:05:16.098Z,100.00
2024-01-20T17:07:45.766Z,100.00
2024-01-20T17:10:15.120Z,100.00
2024-01-20T17:12:43.096Z,100.00
2024-01-20T17:15:11.920Z,100.00
2024-01-20T17:17:39.886Z,100.00
2024-01-20T17:20:08.406Z,100.00
2024-01-20T17:22:36.215Z,100.00
2024-01-20T17:25:04.150Z,100.00
2024-01-20T17:27:31.996Z,100.00
2024-01-20T17:29:59.951Z,100.00
2024-01-20T17:32:27.937Z,100.00
2024-01-20T17:34:56.217Z,100.00
2024-01-20T17:37:25.077Z,100.00
2024-01-20T17:39:54.330Z,100.00
2024-01-20T17:42:22.393Z,100.00
2024-01-20T17:44:50.527Z,100.00
2024-01-20T17:47:18.494Z,100.00
2024-01-20T17:49:46.493Z,100.00
2024-01-20T17:52:14.623Z,100.00
2024-01-20T17:54:44.552Z,100.00
2024-01-20T17:57:15.642Z,100.00
2024-01-20T17:59:43.459Z,100.00
2024-01-20T18:02:11.813Z,100.00
2024-01-20T18:04:41.161Z,100.00
2024-01-20T18:07:09.460Z,100.00
2024-01-20T18:09:38.794Z,100.00
2024-01-20T18:12:08.425Z,100.00
2024-01-20T18:14:36.400Z,100.00
2024-01-20T18:17:06.638Z,100.00
2024-01-20T18:19:34.951Z,100.00
2024-01-20T18:22:03.055Z,100.00
2024-01-20T18:24:31.023Z,100.00
2024-01-20T18:26:59.097Z,100.00
2024-01-20T18:29:27.364Z,100.00
2024-01-20T18:31:55.670Z,100.00
2024-01-20T18:34:24.055Z,100.00
2024-01-20T18:36:52.732Z,100.00
2024-01-20T18:39:20.807Z,100.00
2024-01-20T18:41:49.268Z,100.00
2024-01-20T18:44:17.091Z,100.00
2024-01-20T18:46:45.308Z,100.00
2024-01-20T18:49:13.182Z,100.00
2024-01-20T18:51:41.465Z,100.00
2024-01-20T18:54:09.840Z,100.00
2024-01-20T18:56:37.680Z,100.00
2024-01-20T18:59:05.905Z,100.00
2024-01-20T19:01:34.129Z,100.00
2024-01-20T19:04:02.194Z,100.00
2024-01-20T19:06:31.108Z,100.00
2024-01-20T19:08:59.478Z,100.00
2024-01-20T19:11:27.452Z,100.00
2024-01-20T19:13:57.652Z,100.00
2024-01-20T19:16:25.776Z,100.00
2024-01-20T19:18:54.002Z,100.00
2024-01-20T19:21:22.026Z,100.00
2024-01-20T19:23:50.170Z,100.00
2024-01-20T19:26:18.006Z,100.00
2024-01-20T19:28:46.440Z,100.00
2024-01-20T19:31:14.885Z,100.00
2024-01-20T19:33:46.728Z,100.00
2024-01-20T19:36:14.985Z,100.00
2024-01-20T19:38:43.090Z,100.00
2024-01-20T19:41:10.916Z,100.00
2024-01-20T19:43:39.599Z,100.00
2024-01-20T19:46:07.717Z,100.00
2024-01-20T19:48:36.203Z,100.00
2024-01-20T19:51:05.285Z,100.00
2024-01-20T19:53:33.188Z,100.00
2024-01-20T19:56:01.959Z,100.00
2024-01-20T19:58:29.922Z,100.00
2024-01-20T20:00:57.864Z,100.00
2024-01-20T20:03:26.313Z,100.00
2024-01-20T20:05:54.371Z,100.00
2024-01-20T20:08:25.060Z,100.00
2024-01-20T20:10:53.542Z,100.00
2024-01-20T20:13:26.942Z,100.00
2024-01-20T20:15:55.777Z,100.00
2024-01-20T20:18:23.906Z,100.00
2024-01-20T20:20:52.610Z,100.00
2024-01-20T20:23:20.555Z,100.00
2024-01-20T20:25:48.636Z,100.00
2024-01-20T20:28:16.571Z,100.00
2024-01-20T20:30:46.026Z,100.00
2024-01-20T20:33:15.193Z,100.00
2024-01-20T20:35:43.121Z,100.00
2024-01-20T20:38:11.218Z,100.00
2024-01-20T20:40:39.218Z,100.00
2024-01-20T20:43:07.136Z,100.00
2024-01-20T20:45:35.608Z,100.00
2024-01-20T20:48:04.021Z,100.00
2024-01-20T20:50:32.011Z,100.00
2024-01-20T20:52:59.951Z,100.00
2024-01-20T20:55:27.955Z,100.00
2024-01-20T20:57:55.941Z,100.00
2024-01-20T21:00:23.917Z,100.00
2024-01-20T21:02:51.987Z,100.00
2024-01-20T21:05:20.318Z,100.00
2024-01-20T21:07:48.735Z,100.00
2024-01-20T21:10:18.526Z,100.00
2024-01-20T21:12:47.646Z,100.00
2024-01-20T21:15:17.082Z,100.00
2024-01-20T21:17:45.451Z,100.00
2024-01-20T21:20:13.885Z,100.00
2024-01-20T21:22:41.947Z,100.00
2024-01-20T21:25:10.734Z,100.00
2024-01-20T21:27:38.656Z,100.00
2024-01-20T21:30:08.626Z,100.00
2024-01-20T21:32:36.972Z,100.00
2024-01-20T21:35:05.623Z,100.00
2024-01-20T21:37:33.593Z,100.00
2024-01-20T21:40:01.621Z,100.00
2024-01-20T21:42:29.521Z,100.00
2024-01-20T21:45:01.158Z,100.00
2024-01-20T21:47:29.477Z,100.00
2024-01-20T21:49:57.882Z,100.00
2024-01-20T21:52:25.813Z,100.00
2024-01-20T21:54:53.774Z,100.00
2024-01-20T21:57:22.040Z,100.00
2024-01-20T21:59:49.952Z,100.00
2024-01-20T22:02:17.998Z,100.00
2024-01-20T22:04:45.885Z,100.00
2024-01-20T22:07:13.805Z,100.00
2024-01-20T22:09:41.793Z,100.00
2024-01-20T22:12:09.807Z,100.00
2024-01-20T22:14:37.873Z,100.00
2024-01-20T22:17:06.392Z,100.00
2024-01-20T22:19:34.547Z,100.00
2024-01-20T22:22:02.903Z,100.00
2024-01-20T22:24:30.898Z,100.00
2024-01-20T22:26:59.126Z,100.00
2024-01-20T22:29:31.290Z,100.00
2024-01-20T22:32:01.532Z,100.00
2024-01-20T22:34:32.609Z,100.00
2024-01-20T22:37:01.689Z,100.00
2024-01-20T22:39:30.683Z,100.00
2024-01-20T22:41:58.765Z,100.00
2024-01-20T22:44:26.930Z,100.00
2024-01-20T22:46:55.074Z,100.00
2024-01-20T22:49:23.264Z,100.00
2024-01-20T22:51:51.573Z,100.00
2024-01-20T22:54:23.588Z,100.00
2024-01-20T22:56:52.558Z,100.00
2024-01-20T22:59:20.653Z,100.00
2024-01-20T23:01:48.705Z,100.00
2024-01-20T23:04:16.796Z,100.00
2024-01-20T23:06:46.889Z,100.00
2024-01-20T23:09:14.749Z,100.00
2024-01-20T23:11:42.586Z,100.00
2024-01-20T23:14:10.424Z,100.00
2024-01-20T23:16:38.706Z,100.00
2024-01-20T23:19:06.668Z,100.00
2024-01-20T23:21:34.941Z,100.00
2024-01-20T23:24:03.022Z,100.00
2024-01-20T23:26:31.001Z,100.00
2024-01-20T23:28:58.803Z,100.00
2024-01-20T23:31:26.947Z,100.00
2024-01-20T23:33:55.120Z,100.00
2024-01-20T23:36:23.043Z,100.00
2024-01-20T23:38:51.335Z,100.00
2024-01-20T23:41:21.865Z,100.00
2024-01-20T23:43:49.628Z,100.00
2024-01-20T23:46:17.728Z,100.00
2024-01-20T23:48:45.845Z,99.80
2024-01-20T23:51:15.081Z,99.81
2024-01-20T23:53:43.080Z,99.91
2024-01-20T23:56:11.513Z,99.97
2024-01-20T23:58:39.381Z,99.71
